This is the latest recevied weather packets stored in our database for station/object KJ6HT. If no packets are shown the sender has not sent any weather packets the latest 10 day(s).
| Time | Temp. | Humidity | Pressure | Rain* | Wind** | Luminosity | Snow |
|---|---|---|---|---|---|---|---|
| 1777509953 | 22.22° C | 51% | 1012.3 hPa | 0 mm | - | - | - |
| 1777509100 | 22.78° C | 48% | 1012.3 hPa | 0 mm | - | - | - |
| 1777508150 | 23.33° C | 47% | 1012.3 hPa | 0 mm | - | - | - |
| 1777507209 | 23.33° C | 46% | 1012.2 hPa | 0 mm | - | - | - |
| 1777506348 | 23.89° C | 45% | 1012.1 hPa | 0 mm | - | - | - |
| 1777505496 | 24.44° C | 43% | 1012.3 hPa | 0 mm | - | - | - |
| 1777504545 | 24.44° C | 43% | 1012.2 hPa | 0 mm | - | - | - |
| 1777503607 | 24.44° C | 41% | 1012.4 hPa | 0 mm | - | - | - |
| 1777502765 | 24.44° C | 42% | 1012.5 hPa | 0 mm | - | - | - |
| 1777501805 | 24.44° C | 42% | 1012.6 hPa | 0 mm | - | - | - |
| 1777500951 | 25° C | 43% | 1012.7 hPa | 0 mm | - | - | - |
| 1777500106 | 25° C | 41% | 1012.9 hPa | 0 mm | - | - | - |
| 1777499141 | 25.56° C | 42% | 1012.9 hPa | 0 mm | - | - | - |
| 1777498229 | 25.56° C | 40% | 1012.9 hPa | 0 mm | - | - | - |
| 1777497388 | 25.56° C | 40% | 1013 hPa | 0 mm | - | - | - |
| 1777496459 | 26.67° C | 36% | 1013.2 hPa | 0 mm | - | - | - |
| 1777495503 | 26.11° C | 36% | 1013.2 hPa | 0 mm | - | - | - |
| 1777494664 | 25.56° C | 35% | 1013.3 hPa | 0 mm | - | - | - |
| 1777493744 | 25.56° C | 35% | 1013.4 hPa | 0 mm | - | - | - |
| 1777492835 | 24.44° C | 36% | 1013.5 hPa | 0 mm | - | - | - |
| 1777491985 | 24.44° C | 36% | 1013.8 hPa | 0 mm | - | - | - |
| 1777491073 | 24.44° C | 36% | 1014.1 hPa | 0 mm | - | - | - |
| 1777490131 | 23.89° C | 38% | 1014.2 hPa | 0 mm | - | - | - |
| 1777489287 | 23.33° C | 40% | 1014.5 hPa | 0 mm | - | - | - |
| 1777488335 | 22.78° C | 42% | 1014.7 hPa | 0 mm | - | - | - |
* Rain latest hour (hover to see other rain measurements)
** Current wind speed in m/s (hover to see current wind gust speed)